createdAt,value
2018-11-13T00:00:28.072Z,35.90
2018-11-13T00:02:59.729Z,36.23
2018-11-13T00:05:30.914Z,38.37
2018-11-13T00:08:02.059Z,39.67
2018-11-13T00:10:33.270Z,37.53
2018-11-13T00:13:04.809Z,38.57
2018-11-13T00:15:36.098Z,36.83
2018-11-13T00:18:07.869Z,38.90
2018-11-13T00:20:39.042Z,39.17
2018-11-13T00:23:10.417Z,39.77
2018-11-13T00:25:41.577Z,42.57
2018-11-13T00:28:12.389Z,39.43
2018-11-13T00:30:43.355Z,39.23
2018-11-13T00:33:14.110Z,40.70
2018-11-13T00:35:45.046Z,41.60
2018-11-13T00:38:15.912Z,40.53
2018-11-13T00:40:46.613Z,40.33
2018-11-13T00:43:17.819Z,40.20
2018-11-13T00:45:48.815Z,41.43
2018-11-13T00:48:19.734Z,39.63
2018-11-13T00:50:50.540Z,40.07
2018-11-13T00:53:21.289Z,38.53
2018-11-13T00:55:52.131Z,38.67
2018-11-13T00:58:22.881Z,38.43
2018-11-13T01:00:54.476Z,39.43
2018-11-13T01:03:25.361Z,39.27
2018-11-13T01:05:56.602Z,37.70
2018-11-13T01:08:27.696Z,37.37
2018-11-13T01:10:58.877Z,38.87
2018-11-13T01:13:30.312Z,37.60
2018-11-13T01:16:01.421Z,38.70
2018-11-13T01:18:32.530Z,38.60
2018-11-13T01:21:03.832Z,35.57
2018-11-13T01:23:35.060Z,37.87
2018-11-13T01:26:06.442Z,37.00
2018-11-13T01:28:38.960Z,37.17
2018-11-13T01:31:10.025Z,38.37
2018-11-13T01:33:41.256Z,39.20
2018-11-13T01:36:12.615Z,38.73
2018-11-13T01:38:43.959Z,39.60
2018-11-13T01:41:15.147Z,38.57
2018-11-13T01:43:46.641Z,38.73
2018-11-13T01:46:18.046Z,38.80
2018-11-13T01:48:49.347Z,40.93
2018-11-13T01:51:20.433Z,40.87
2018-11-13T01:53:51.747Z,39.83
2018-11-13T01:56:22.864Z,39.93
2018-11-13T01:58:54.117Z,40.43
2018-11-13T02:01:25.687Z,39.57
2018-11-13T02:03:56.480Z,39.70
2018-11-13T02:06:27.726Z,40.93
2018-11-13T02:08:58.613Z,39.57
2018-11-13T02:11:29.455Z,39.97
2018-11-13T02:14:00.325Z,42.53
2018-11-13T02:16:31.086Z,40.67
2018-11-13T02:19:01.815Z,42.60
2018-11-13T02:21:32.739Z,42.43
2018-11-13T02:24:03.712Z,43.57
2018-11-13T02:26:34.560Z,43.93
2018-11-13T02:29:05.630Z,44.43
2018-11-13T02:31:36.420Z,44.13
2018-11-13T02:34:07.329Z,43.30
2018-11-13T02:36:38.381Z,43.07
2018-11-13T02:39:11.034Z,42.63
2018-11-13T02:41:42.084Z,44.93
2018-11-13T02:44:12.888Z,46.40
2018-11-13T02:46:43.768Z,48.33
2018-11-13T02:49:14.553Z,49.63
2018-11-13T02:51:45.263Z,47.10
2018-11-13T02:54:16.251Z,46.03
2018-11-13T02:56:47.167Z,43.53
2018-11-13T02:59:17.983Z,45.27
2018-11-13T03:01:49.233Z,48.50
2018-11-13T03:04:20.717Z,46.97
2018-11-13T03:06:52.001Z,46.90
2018-11-13T03:09:23.204Z,46.10
2018-11-13T03:11:54.579Z,45.33
2018-11-13T03:14:25.772Z,45.50
2018-11-13T03:16:56.884Z,45.07
2018-11-13T03:19:28.239Z,46.13
2018-11-13T03:21:59.330Z,45.97
2018-11-13T03:24:30.386Z,44.93
2018-11-13T03:27:01.814Z,45.30
2018-11-13T03:29:33.732Z,47.27
2018-11-13T03:32:04.689Z,49.77
2018-11-13T03:34:36.071Z,47.50
2018-11-13T03:37:07.674Z,47.27
2018-11-13T03:39:38.667Z,47.13
2018-11-13T03:42:10.094Z,47.83
2018-11-13T03:44:41.434Z,47.20
2018-11-13T03:47:12.630Z,46.47
2018-11-13T03:49:43.841Z,46.93
2018-11-13T03:52:15.088Z,45.77
2018-11-13T03:54:46.130Z,45.60
2018-11-13T03:57:17.185Z,43.57
2018-11-13T03:59:48.237Z,46.87
2018-11-13T04:02:19.450Z,45.30
2018-11-13T04:04:50.411Z,47.97
2018-11-13T04:07:21.249Z,47.17
2018-11-13T04:09:52.162Z,47.43
2018-11-13T04:12:23.178Z,48.40
2018-11-13T04:14:54.728Z,46.73
2018-11-13T04:17:25.742Z,47.27
2018-11-13T04:19:56.644Z,44.50
2018-11-13T04:22:27.545Z,41.97
2018-11-13T04:24:58.692Z,45.87
2018-11-13T04:27:29.833Z,44.40
2018-11-13T04:30:00.781Z,44.53
2018-11-13T04:32:31.908Z,46.47
2018-11-13T04:35:03.031Z,46.30
2018-11-13T04:37:34.324Z,44.40
2018-11-13T04:40:08.312Z,44.60
2018-11-13T04:42:39.912Z,44.27
2018-11-13T04:45:12.872Z,42.77
2018-11-13T04:47:45.106Z,43.43
2018-11-13T04:50:17.166Z,40.20
2018-11-13T04:52:48.090Z,40.77
2018-11-13T04:55:19.527Z,43.13
2018-11-13T04:57:51.029Z,43.40
2018-11-13T05:00:23.264Z,42.83
2018-11-13T05:02:54.173Z,40.13
2018-11-13T05:05:25.288Z,40.47
2018-11-13T05:07:56.578Z,41.73
2018-11-13T05:10:27.698Z,42.53
2018-11-13T05:12:58.571Z,43.37
2018-11-13T05:15:29.362Z,42.47
2018-11-13T05:18:00.261Z,44.37
2018-11-13T05:20:31.209Z,43.13
2018-11-13T05:23:02.297Z,43.27
2018-11-13T05:25:33.449Z,41.37
2018-11-13T05:28:04.346Z,42.83
2018-11-13T05:30:35.318Z,41.30
2018-11-13T05:33:06.306Z,41.40
2018-11-13T05:35:37.288Z,55.03
2018-11-13T05:38:08.346Z,71.40
2018-11-13T05:40:39.503Z,56.07
2018-11-13T05:43:10.401Z,50.07
2018-11-13T05:45:41.368Z,45.40
2018-11-13T05:48:12.199Z,43.73
2018-11-13T05:50:43.163Z,46.57
2018-11-13T05:53:14.407Z,41.13
2018-11-13T05:55:45.573Z,47.03
2018-11-13T05:58:16.525Z,44.10
2018-11-13T06:00:47.385Z,42.90
2018-11-13T06:03:18.250Z,44.00
2018-11-13T06:05:49.197Z,40.83
2018-11-13T06:08:20.358Z,41.67
2018-11-13T06:10:51.218Z,40.93
2018-11-13T06:13:22.303Z,42.50
2018-11-13T06:15:53.117Z,43.03
2018-11-13T06:18:24.101Z,41.73
2018-11-13T06:20:55.168Z,51.30
2018-11-13T06:23:26.279Z,47.57
2018-11-13T06:25:57.212Z,45.47
2018-11-13T06:28:28.178Z,41.83
2018-11-13T06:30:59.316Z,42.43
2018-11-13T06:33:30.309Z,42.00
2018-11-13T06:36:01.237Z,43.30
2018-11-13T06:38:32.223Z,41.60
2018-11-13T06:41:03.252Z,42.40
2018-11-13T06:43:34.165Z,43.50
2018-11-13T06:46:05.348Z,41.70
2018-11-13T06:48:36.203Z,40.27
2018-11-13T06:51:07.215Z,39.90
2018-11-13T06:53:53.370Z,46.47
2018-11-13T06:56:24.676Z,41.20
2018-11-13T06:58:55.869Z,39.43
2018-11-13T07:01:26.903Z,44.13
2018-11-13T07:03:57.960Z,45.70
2018-11-13T07:06:29.000Z,41.53
2018-11-13T07:09:00.135Z,42.87
2018-11-13T07:11:31.151Z,40.47
2018-11-13T07:14:02.285Z,38.90
2018-11-13T07:16:33.440Z,42.10
2018-11-13T07:19:04.384Z,40.20
2018-11-13T07:21:35.832Z,40.47
2018-11-13T07:24:07.032Z,41.67
2018-11-13T07:26:38.115Z,39.57
2018-11-13T07:29:09.142Z,37.97
2018-11-13T07:31:40.072Z,36.60
2018-11-13T07:34:11.027Z,37.17
2018-11-13T07:36:41.981Z,38.67
2018-11-13T07:39:13.166Z,39.10
2018-11-13T07:41:44.101Z,39.33
2018-11-13T07:44:15.345Z,37.60
2018-11-13T07:46:46.433Z,36.90
2018-11-13T07:49:17.630Z,36.20
2018-11-13T07:51:48.679Z,38.93
2018-11-13T07:54:19.897Z,36.57
2018-11-13T07:56:50.931Z,35.90
2018-11-13T07:59:22.118Z,36.70
2018-11-13T08:01:53.156Z,39.00
2018-11-13T08:04:24.284Z,36.13
2018-11-13T08:06:55.363Z,37.17
2018-11-13T08:09:26.507Z,38.13
2018-11-13T08:11:57.693Z,37.93
2018-11-13T08:14:28.737Z,37.93
2018-11-13T08:16:59.844Z,36.23
2018-11-13T08:19:31.386Z,39.10
2018-11-13T08:22:02.740Z,37.37
2018-11-13T08:24:34.011Z,37.80
2018-11-13T08:27:05.279Z,36.20
2018-11-13T08:29:36.569Z,37.57
2018-11-13T08:32:07.678Z,37.50
2018-11-13T08:34:39.162Z,39.17
2018-11-13T08:37:10.563Z,38.23
2018-11-13T08:39:41.688Z,39.63
2018-11-13T08:42:12.936Z,40.13
2018-11-13T08:44:44.073Z,38.57
2018-11-13T08:47:15.162Z,39.03
2018-11-13T08:49:46.508Z,43.03
2018-11-13T08:52:17.617Z,41.43
2018-11-13T08:54:48.850Z,42.47
2018-11-13T08:57:20.443Z,41.73
2018-11-13T08:59:51.751Z,42.50
2018-11-13T09:02:23.058Z,42.00
2018-11-13T09:04:54.758Z,41.47
2018-11-13T09:07:25.928Z,42.77
2018-11-13T09:09:57.309Z,41.40
2018-11-13T09:12:28.374Z,40.10
2018-11-13T09:14:59.592Z,41.60
2018-11-13T09:17:30.469Z,41.90
2018-11-13T09:20:01.702Z,42.70
2018-11-13T09:22:32.837Z,42.30
2018-11-13T09:25:04.074Z,42.57
2018-11-13T09:27:35.122Z,41.70
2018-11-13T09:30:08.309Z,42.20
2018-11-13T09:32:39.613Z,43.07
2018-11-13T09:35:12.114Z,43.00
2018-11-13T09:37:43.641Z,38.67
2018-11-13T09:40:18.935Z,40.63
2018-11-13T09:42:51.329Z,39.53
2018-11-13T09:45:22.379Z,39.47
2018-11-13T09:47:53.347Z,37.80
2018-11-13T09:50:24.678Z,37.23
2018-11-13T09:52:55.676Z,37.33
2018-11-13T09:55:26.572Z,36.27
2018-11-13T09:57:57.443Z,37.87
2018-11-13T10:00:28.525Z,38.23
2018-11-13T10:03:01.452Z,36.07
2018-11-13T10:05:31.954Z,36.20
2018-11-13T10:08:02.882Z,35.47
2018-11-13T10:10:33.967Z,31.63
2018-11-13T10:13:05.283Z,33.77
2018-11-13T10:15:36.264Z,32.27
2018-11-13T10:18:07.657Z,33.20
2018-11-13T10:20:38.403Z,31.47
2018-11-13T10:23:09.555Z,32.13
2018-11-13T10:25:40.622Z,33.63
2018-11-13T10:28:11.556Z,33.07
2018-11-13T10:30:42.763Z,31.43
2018-11-13T10:33:13.780Z,30.17
2018-11-13T10:35:44.764Z,29.83
2018-11-13T10:38:16.001Z,31.07
2018-11-13T10:40:47.273Z,30.20
2018-11-13T10:43:18.329Z,29.37
2018-11-13T10:45:49.283Z,29.07
2018-11-13T10:48:20.513Z,28.13
2018-11-13T10:50:51.575Z,28.77
2018-11-13T10:53:22.827Z,28.47
2018-11-13T10:55:54.106Z,26.87
2018-11-13T10:58:25.262Z,25.97
2018-11-13T11:01:04.378Z,27.70
2018-11-13T11:03:41.628Z,27.77
2018-11-13T11:06:12.658Z,27.00
2018-11-13T11:08:45.178Z,26.93
2018-11-13T11:11:16.694Z,25.87
2018-11-13T11:13:47.612Z,27.53
2018-11-13T11:16:19.737Z,26.50
2018-11-13T11:18:50.928Z,24.77
2018-11-13T11:21:22.008Z,25.63
2018-11-13T11:23:53.071Z,25.73
2018-11-13T11:26:23.998Z,24.47
2018-11-13T11:28:55.058Z,25.53
2018-11-13T11:31:26.494Z,22.27
2018-11-13T11:33:57.577Z,24.83
2018-11-13T11:36:28.937Z,24.93
2018-11-13T11:39:00.588Z,23.17
2018-11-13T11:41:32.212Z,22.67
2018-11-13T11:44:03.623Z,22.63
2018-11-13T11:46:35.181Z,21.87
2018-11-13T11:49:06.532Z,25.57
2018-11-13T11:51:38.775Z,22.40
2018-11-13T11:54:10.214Z,23.57
2018-11-13T11:56:41.671Z,23.20
2018-11-13T11:59:12.951Z,22.10
2018-11-13T12:01:44.203Z,19.93
2018-11-13T12:04:15.379Z,20.33
2018-11-13T12:06:46.512Z,19.67
2018-11-13T12:09:17.598Z,20.87
2018-11-13T12:11:48.749Z,23.67
2018-11-13T12:14:19.930Z,20.27
2018-11-13T12:16:51.396Z,19.47
2018-11-13T12:19:22.858Z,19.20
2018-11-13T12:21:54.167Z,20.70
2018-11-13T12:24:25.348Z,19.33
2018-11-13T12:26:56.563Z,20.40
2018-11-13T12:29:27.756Z,20.40
2018-11-13T12:31:59.015Z,20.60
2018-11-13T12:34:30.434Z,19.87
2018-11-13T12:37:01.715Z,19.60
2018-11-13T12:39:33.100Z,19.43
2018-11-13T12:42:04.406Z,21.93
2018-11-13T12:44:35.574Z,21.53
2018-11-13T12:47:06.952Z,21.17
2018-11-13T12:49:38.247Z,20.47
2018-11-13T12:52:15.828Z,19.87
2018-11-13T12:54:48.038Z,20.80
2018-11-13T12:57:19.200Z,20.40
2018-11-13T12:59:50.517Z,19.63
2018-11-13T13:02:21.827Z,19.13
2018-11-13T13:04:53.024Z,19.77
2018-11-13T13:07:24.260Z,18.57
2018-11-13T13:09:55.497Z,19.43
2018-11-13T13:12:26.481Z,18.97
2018-11-13T13:14:57.698Z,21.10
2018-11-13T13:17:28.779Z,22.73
2018-11-13T13:19:59.997Z,22.10
2018-11-13T13:22:31.088Z,19.17
2018-11-13T13:25:01.974Z,20.27
2018-11-13T13:27:32.944Z,20.67
2018-11-13T13:30:04.069Z,21.97
2018-11-13T13:32:35.206Z,20.47
2018-11-13T13:35:36.527Z,20.20
2018-11-13T13:38:09.180Z,19.60
2018-11-13T13:40:41.776Z,20.87
2018-11-13T13:43:13.725Z,19.97
2018-11-13T13:45:45.972Z,20.27
2018-11-13T13:48:17.494Z,19.03
2018-11-13T13:50:49.031Z,20.10
2018-11-13T13:53:20.812Z,18.83
2018-11-13T13:55:51.945Z,22.83
2018-11-13T13:58:23.981Z,23.40
2018-11-13T14:00:56.242Z,24.47
2018-11-13T14:03:27.382Z,25.40
2018-11-13T14:05:58.474Z,22.30
2018-11-13T14:08:30.404Z,24.10
2018-11-13T14:11:01.500Z,22.50
2018-11-13T14:13:32.812Z,20.50
2018-11-13T14:16:03.980Z,22.70
2018-11-13T14:18:35.115Z,22.53
2018-11-13T14:21:06.317Z,21.80
2018-11-13T14:23:37.603Z,22.33
2018-11-13T14:26:09.076Z,22.00
2018-11-13T14:28:40.274Z,23.40
2018-11-13T14:31:11.439Z,21.77
2018-11-13T14:33:42.435Z,20.87
2018-11-13T14:36:13.582Z,22.13
2018-11-13T14:38:44.699Z,20.97
2018-11-13T14:41:15.930Z,20.70
2018-11-13T14:43:47.287Z,21.67
2018-11-13T14:46:18.551Z,21.23
2018-11-13T14:48:49.668Z,21.63
2018-11-13T14:51:20.926Z,20.27
2018-11-13T14:53:52.297Z,19.83
2018-11-13T14:56:23.924Z,19.73
2018-11-13T14:58:55.235Z,21.07
2018-11-13T15:01:26.532Z,21.83
2018-11-13T15:03:57.900Z,22.90
2018-11-13T15:06:29.219Z,20.70
2018-11-13T15:09:00.688Z,20.63
2018-11-13T15:11:32.232Z,21.40
2018-11-13T15:14:03.379Z,31.00
2018-11-13T15:16:34.787Z,30.53
2018-11-13T15:19:06.837Z,30.67
2018-11-13T15:21:37.978Z,32.63
2018-11-13T15:24:09.312Z,45.43
2018-11-13T15:26:41.669Z,54.83
2018-11-13T15:29:12.836Z,70.17
2018-11-13T15:31:44.215Z,62.27
2018-11-13T15:34:15.467Z,48.47
2018-11-13T15:36:46.677Z,33.03
2018-11-13T15:39:18.082Z,33.23
2018-11-13T15:41:49.445Z,33.50
2018-11-13T15:44:20.808Z,26.87
2018-11-13T15:46:51.924Z,29.47
2018-11-13T15:49:23.236Z,51.47
2018-11-13T15:51:54.930Z,45.87
2018-11-13T15:54:26.442Z,33.53
2018-11-13T15:56:57.799Z,34.70
2018-11-13T15:59:29.024Z,30.90
2018-11-13T16:02:00.332Z,29.20
2018-11-13T16:04:32.098Z,27.80
2018-11-13T16:07:03.635Z,27.03
2018-11-13T16:09:35.223Z,28.60
2018-11-13T16:12:07.090Z,27.10
2018-11-13T16:14:38.231Z,31.73
2018-11-13T16:17:09.423Z,27.40
2018-11-13T16:19:40.742Z,27.10
2018-11-13T16:22:11.923Z,27.77
2018-11-13T16:24:43.085Z,35.63
2018-11-13T16:27:14.216Z,31.50
2018-11-13T16:29:45.632Z,24.60
2018-11-13T16:32:16.874Z,24.10
2018-11-13T16:34:48.167Z,24.63
2018-11-13T16:37:19.511Z,26.57
2018-11-13T16:39:51.191Z,26.33
2018-11-13T16:42:22.480Z,28.43
2018-11-13T16:44:53.788Z,29.40
2018-11-13T16:47:25.866Z,28.30
2018-11-13T16:49:57.468Z,27.30
2018-11-13T16:52:28.836Z,27.00
2018-11-13T16:55:01.618Z,26.30
2018-11-13T16:57:33.244Z,26.37
2018-11-13T17:00:05.573Z,28.23
2018-11-13T17:02:37.313Z,28.40
2018-11-13T17:05:12.971Z,28.43
2018-11-13T17:07:44.422Z,28.90
2018-11-13T17:10:17.717Z,29.13
2018-11-13T17:12:49.715Z,28.47
2018-11-13T17:15:22.201Z,30.07
2018-11-13T17:17:54.474Z,31.07
2018-11-13T17:20:25.907Z,30.50
2018-11-13T17:22:57.070Z,32.80
2018-11-13T17:25:29.769Z,30.67
2018-11-13T17:28:01.809Z,33.03
2018-11-13T17:30:34.671Z,34.03
2018-11-13T17:33:08.347Z,34.20
2018-11-13T17:35:39.885Z,33.77
2018-11-13T17:38:11.659Z,33.07
2018-11-13T17:40:43.182Z,33.50
2018-11-13T17:43:15.698Z,32.07
2018-11-13T17:45:47.216Z,35.13
2018-11-13T17:48:21.181Z,33.17
2018-11-13T17:50:53.028Z,32.17
2018-11-13T17:53:25.001Z,30.33
2018-11-13T17:55:56.289Z,40.80
2018-11-13T17:58:27.617Z,36.77
2018-11-13T18:00:58.918Z,36.03
2018-11-13T18:03:30.182Z,33.40
2018-11-13T18:06:01.457Z,36.40
2018-11-13T18:08:32.895Z,38.67
2018-11-13T18:11:04.437Z,36.53
2018-11-13T18:13:36.784Z,35.03
2018-11-13T18:16:08.304Z,32.47
2018-11-13T18:18:40.573Z,30.27
2018-11-13T18:21:12.943Z,32.17
2018-11-13T18:23:44.769Z,30.70
2018-11-13T18:26:16.292Z,31.07
2018-11-13T18:28:48.213Z,33.63
2018-11-13T18:31:19.689Z,37.33
2018-11-13T18:33:51.364Z,40.23
2018-11-13T18:36:22.730Z,37.70
2018-11-13T18:38:54.005Z,36.47
2018-11-13T18:41:25.165Z,33.27
2018-11-13T18:43:56.388Z,31.00
2018-11-13T18:46:27.712Z,33.63
2018-11-13T18:48:59.163Z,34.67
2018-11-13T18:51:31.159Z,36.33
2018-11-13T18:54:02.262Z,36.70
2018-11-13T18:56:33.565Z,36.07
2018-11-13T18:59:04.785Z,36.97
2018-11-13T19:01:37.246Z,36.37
2018-11-13T19:04:08.703Z,36.20
2018-11-13T19:06:39.885Z,36.10
2018-11-13T19:09:12.635Z,38.40
2018-11-13T19:11:43.827Z,36.93
2018-11-13T19:14:14.880Z,36.83
2018-11-13T19:16:46.163Z,35.30
2018-11-13T19:19:17.470Z,40.37
2018-11-13T19:21:48.779Z,37.83
2018-11-13T19:24:20.214Z,36.40
2018-11-13T19:26:51.300Z,36.63
2018-11-13T19:29:22.390Z,37.07
2018-11-13T19:31:53.704Z,35.17
2018-11-13T19:34:24.813Z,38.40
2018-11-13T19:36:56.178Z,37.23
2018-11-13T19:39:27.722Z,36.67
2018-11-13T19:41:59.088Z,38.73
2018-11-13T19:44:30.202Z,41.70
2018-11-13T19:47:01.227Z,43.10
2018-11-13T19:49:32.497Z,41.67
2018-11-13T19:52:03.841Z,43.17
2018-11-13T19:54:35.136Z,40.10
2018-11-13T19:57:06.392Z,39.53
2018-11-13T19:59:37.811Z,38.23
2018-11-13T20:02:09.029Z,37.30
2018-11-13T20:04:40.354Z,37.40
2018-11-13T20:07:11.723Z,38.20
2018-11-13T20:09:43.218Z,37.77
2018-11-13T20:12:14.438Z,37.63
2018-11-13T20:14:45.781Z,36.83
2018-11-13T20:17:16.864Z,38.47
2018-11-13T20:19:47.852Z,38.63
2018-11-13T20:22:19.122Z,38.07
2018-11-13T20:24:50.357Z,39.27
2018-11-13T20:27:22.619Z,40.43
2018-11-13T20:29:53.628Z,40.50
2018-11-13T20:32:24.821Z,40.43
2018-11-13T20:34:56.035Z,40.30
2018-11-13T20:37:27.468Z,39.30
2018-11-13T20:39:59.725Z,40.40
2018-11-13T20:42:31.946Z,38.57
2018-11-13T20:45:03.359Z,39.23
2018-11-13T20:47:34.412Z,38.90
2018-11-13T20:50:06.654Z,39.83
2018-11-13T20:52:37.892Z,39.53
2018-11-13T20:55:10.662Z,38.70
2018-11-13T20:57:41.984Z,39.27
2018-11-13T21:00:16.308Z,37.83
2018-11-13T21:02:47.826Z,38.53
2018-11-13T21:05:18.978Z,40.63
2018-11-13T21:07:50.190Z,39.77
2018-11-13T21:10:22.106Z,39.43
2018-11-13T21:12:53.318Z,40.50
2018-11-13T21:15:24.514Z,37.37
2018-11-13T21:17:55.579Z,39.43
2018-11-13T21:20:27.996Z,42.37
2018-11-13T21:22:59.045Z,39.20
2018-11-13T21:25:30.615Z,39.87
2018-11-13T21:28:03.308Z,41.63
2018-11-13T21:30:34.448Z,37.70
2018-11-13T21:33:05.796Z,39.20
2018-11-13T21:35:41.673Z,39.00
2018-11-13T21:38:12.956Z,37.73
2018-11-13T21:40:43.936Z,38.70
2018-11-13T21:43:15.181Z,38.43
2018-11-13T21:45:46.339Z,38.27
2018-11-13T21:48:17.352Z,39.57
2018-11-13T21:50:48.581Z,39.97
2018-11-13T21:53:20.147Z,40.13
2018-11-13T21:55:51.233Z,40.53
2018-11-13T21:58:23.124Z,40.40
2018-11-13T22:00:55.409Z,40.60
2018-11-13T22:03:27.207Z,39.13
2018-11-13T22:05:58.295Z,42.53
2018-11-13T22:08:29.742Z,42.73
2018-11-13T22:11:01.097Z,40.10
2018-11-13T22:13:32.361Z,40.50
2018-11-13T22:16:03.537Z,39.97
2018-11-13T22:18:34.592Z,40.87
2018-11-13T22:21:06.254Z,41.00
2018-11-13T22:23:37.357Z,38.90
2018-11-13T22:26:08.742Z,38.30
2018-11-13T22:28:39.766Z,39.27
2018-11-13T22:31:10.786Z,39.17
2018-11-13T22:33:42.071Z,40.23
2018-11-13T22:36:12.988Z,37.50
2018-11-13T22:38:44.033Z,39.63
2018-11-13T22:41:15.221Z,38.87
2018-11-13T22:43:46.562Z,39.60
2018-11-13T22:46:17.892Z,39.20
2018-11-13T22:48:48.981Z,37.87
2018-11-13T22:51:19.858Z,39.00
2018-11-13T22:53:50.957Z,40.20
2018-11-13T22:56:22.033Z,38.63
2018-11-13T22:58:53.043Z,38.90
2018-11-13T23:01:24.250Z,37.43
2018-11-13T23:03:55.293Z,38.57
2018-11-13T23:06:26.788Z,37.47
2018-11-13T23:08:58.093Z,35.30
2018-11-13T23:11:29.193Z,36.03
2018-11-13T23:14:00.347Z,35.80
2018-11-13T23:16:31.482Z,34.40
2018-11-13T23:19:03.031Z,35.67
2018-11-13T23:21:34.146Z,34.00
2018-11-13T23:24:05.275Z,34.97
2018-11-13T23:26:36.539Z,34.40
2018-11-13T23:29:07.947Z,33.17
2018-11-13T23:31:39.187Z,35.17
2018-11-13T23:34:10.154Z,32.60
2018-11-13T23:36:41.315Z,33.10
2018-11-13T23:39:12.267Z,31.87
2018-11-13T23:41:43.283Z,31.30
2018-11-13T23:44:15.127Z,31.73
2018-11-13T23:46:46.148Z,32.10
2018-11-13T23:49:17.191Z,32.27
2018-11-13T23:51:48.734Z,30.87
2018-11-13T23:54:19.945Z,31.33
2018-11-13T23:56:51.000Z,31.80
2018-11-13T23:59:22.173Z,30.03
